Observation data for Tulia on 05/28/2019      Previous  Date  Next       Current Mesonet Observations  Soil Data  Daily Summary Page  Observations in Plain Language
KTIS 280500Z 17014KT 22/18 A2972 RMK A01 T02180179  RH  083%=      5-min Rain = 0
KTIS 280505Z 17014KT 22/18 A2972 RMK A01 T02190179  RH  082%=      5-min Rain = 0
KTIS 280510Z 17014G19KT 22/18 A2972 RMK A01 T02190179  RH  082%=      5-min Rain = 0
KTIS 280515Z 18014KT 22/18 A2972 RMK A01 T02180179  RH  082%=      5-min Rain = 0
KTIS 280520Z 18014KT 22/18 A2972 RMK A01 T02180178  RH  082%=      5-min Rain = 0
KTIS 280525Z 18014KT 22/18 A2973 RMK A01 T02190179  RH  082%=      5-min Rain = 0
KTIS 280530Z 18014G19KT 22/18 A2973 RMK A01 T02180179  RH  083%=      5-min Rain = 0
KTIS 280535Z 18014KT 22/18 A2973 RMK A01 T02170179  RH  083%=      5-min Rain = 0
KTIS 280540Z 18015G22KT 22/18 A2973 RMK A01 T02170178  RH  083%=      5-min Rain = 0
KTIS 280545Z 18014G19KT 22/18 A2973 RMK A01 T02170178  RH  083%=      5-min Rain = 0
KTIS 280550Z 19014KT 22/18 A2973 RMK A01 T02160178  RH  083%=      5-min Rain = 0
KTIS 280555Z 19014G19KT 22/18 A2973 RMK A01 T02160178  RH  083%=      5-min Rain = 0
KTIS 280600Z 19014G20KT 22/18 A2973 RMK A01 T02160178  RH  083%=      5-min Rain = 0
KTIS 280605Z 19014KT 22/18 A2973 RMK A01 T02160178  RH  083%=      5-min Rain = 0
KTIS 280610Z 19014G19KT 22/18 A2973 RMK A01 T02150178  RH  084%=      5-min Rain = 0
KTIS 280615Z 19015KT 22/18 A2973 RMK A01 T02150178  RH  084%=      5-min Rain = 0
KTIS 280620Z 19017G22KT 22/18 A2973 RMK A01 T02160178  RH  083%=      5-min Rain = 0
KTIS 280625Z 19016G21KT 22/18 A2973 RMK A01 T02160178  RH  083%=      5-min Rain = 0
KTIS 280630Z 19015G20KT 22/18 A2973 RMK A01 T02160178  RH  083%=      5-min Rain = 0
KTIS 280635Z 19015G20KT 22/18 A2973 RMK A01 T02160178  RH  083%=      5-min Rain = 0
KTIS 280640Z 19014G20KT 22/18 A2973 RMK A01 T02150178  RH  084%=      5-min Rain = 0
KTIS 280645Z 19015G21KT 21/18 A2973 RMK A01 T02140178  RH  084%=      5-min Rain = 0
KTIS 280650Z 19014KT 21/18 A2973 RMK A01 T02130178  RH  085%=      5-min Rain = 0
KTIS 280655Z 19013KT 21/18 A2973 RMK A01 T02120178  RH  085%=      5-min Rain = 0
KTIS 280700Z 19012KT 21/18 A2973 RMK A01 T02110178  RH  086%=      5-min Rain = 0
KTIS 280705Z 19011KT 21/18 A2973 RMK A01 T02090178  RH  087%=      5-min Rain = 0
KTIS 280710Z 19012G17KT 21/18 A2972 RMK A01 T02090178  RH  087%=      5-min Rain = 0
KTIS 280715Z 18010KT 21/18 A2972 RMK A01 T02080178  RH  087%=      5-min Rain = 0
KTIS 280720Z 19010KT 21/18 A2972 RMK A01 T02070177  RH  088%=      5-min Rain = 0
KTIS 280725Z 19011G16KT 21/18 A2972 RMK A01 T02070177  RH  088%=      5-min Rain = 0
KTIS 280730Z 19010KT 21/18 A2972 RMK A01 T02080177  RH  087%=      5-min Rain = 0
KTIS 280735Z 19011KT 21/18 A2972 RMK A01 T02070177  RH  087%=      5-min Rain = 0
KTIS 280740Z 19010KT 21/18 A2972 RMK A01 T02070177  RH  087%=      5-min Rain = 0
KTIS 280745Z 20010KT 21/18 A2973 RMK A01 T02070177  RH  087%=      5-min Rain = 0
KTIS 280750Z 20010KT 21/18 A2973 RMK A01 T02070177  RH  087%=      5-min Rain = 0
KTIS 280755Z 20009KT 21/18 A2973 RMK A01 T02070177  RH  088%=      5-min Rain = 0
KTIS 280800Z 21009KT 21/18 A2973 RMK A01 T02070177  RH  088%=      5-min Rain = 0
KTIS 280805Z 21008KT 21/18 A2973 RMK A01 T02060177  RH  088%=      5-min Rain = 0
KTIS 280810Z 23008KT 21/18 A2973 RMK A01 T02060177  RH  088%=      5-min Rain = 0
KTIS 280815Z 25007KT 21/18 A2973 RMK A01 T02060178  RH  088%=      5-min Rain = 0
KTIS 280820Z 23007KT 21/18 A2973 RMK A01 T02050177  RH  089%=      5-min Rain = 0
KTIS 280825Z 22007KT 20/18 A2973 RMK A01 T02040177  RH  089%=      5-min Rain = 0
KTIS 280830Z 22007KT 20/18 A2973 RMK A01 T02020177  RH  090%=      5-min Rain = 0
KTIS 280835Z 22007KT 20/18 A2973 RMK A01 T02010177  RH  090%=      5-min Rain = 0
KTIS 280840Z 22006KT 20/18 A2973 RMK A01 T02010177  RH  091%=      5-min Rain = 0
KTIS 280845Z 23006KT 20/18 A2973 RMK A01 T02000176  RH  091%=      5-min Rain = 0
KTIS 280850Z 22005KT 20/18 A2972 RMK A01 T01980176  RH  092%=      5-min Rain = 0
KTIS 280855Z 21005KT 20/18 A2972 RMK A01 T01970175  RH  092%=      5-min Rain = 0
KTIS 280900Z 20005KT 20/18 A2972 RMK A01 T01960175  RH  092%=      5-min Rain = 0
KTIS 280905Z 20005KT 20/17 A2972 RMK A01 T01950174  RH  093%=      5-min Rain = 0
KTIS 280910Z 20005KT 19/17 A2972 RMK A01 T01930174  RH  093%=      5-min Rain = 0
KTIS 280915Z 21006KT 19/17 A2972 RMK A01 T01920174  RH  094%=      5-min Rain = 0
KTIS 280920Z 21006KT 19/17 A2972 RMK A01 T01920174  RH  094%=      5-min Rain = 0
KTIS 280925Z 21006KT 19/17 A2972 RMK A01 T01920174  RH  094%=      5-min Rain = 0
KTIS 280930Z 21007KT 19/17 A2972 RMK A01 T01920174  RH  094%=      5-min Rain = 0
KTIS 280935Z 20008KT 19/17 A2972 RMK A01 T01910173  RH  094%=      5-min Rain = 0
KTIS 280940Z 21007KT 19/17 A2972 RMK A01 T01930174  RH  093%=      5-min Rain = 0
KTIS 280945Z 20006KT 19/17 A2972 RMK A01 T01920173  RH  093%=      5-min Rain = 0
KTIS 280950Z 21006KT 19/17 A2972 RMK A01 T01910172  RH  093%=      5-min Rain = 0
KTIS 280955Z 21006KT 19/17 A2972 RMK A01 T01890171  RH  094%=      5-min Rain = 0
KTIS 281000Z 21007KT 19/17 A2972 RMK A01 T01880170  RH  094%=      5-min Rain = 0
KTIS 281005Z 21007KT 19/17 A2973 RMK A01 T01880170  RH  094%=      5-min Rain = 0
KTIS 281010Z 21007KT 19/17 A2973 RMK A01 T01870170  RH  094%=      5-min Rain = 0
KTIS 281015Z 21007KT 19/17 A2973 RMK A01 T01870170  RH  094%=      5-min Rain = 0
KTIS 281020Z 22008KT 19/17 A2973 RMK A01 T01870170  RH  094%=      5-min Rain = 0
KTIS 281025Z 22008KT 19/17 A2972 RMK A01 T01880170  RH  094%=      5-min Rain = 0
KTIS 281030Z 22008KT 19/17 A2972 RMK A01 T01860169  RH  094%=      5-min Rain = 0
KTIS 281035Z 22008KT 19/17 A2973 RMK A01 T01850168  RH  094%=      5-min Rain = 0
KTIS 281040Z 22008KT 19/17 A2973 RMK A01 T01850168  RH  094%=      5-min Rain = 0
KTIS 281045Z 22008KT 19/17 A2973 RMK A01 T01850167  RH  094%=      5-min Rain = 0
KTIS 281050Z 22008KT 18/17 A2973 RMK A01 T01840166  RH  094%=      5-min Rain = 0
KTIS 281055Z 22008KT 18/16 A2973 RMK A01 T01830164  RH  093%=      5-min Rain = 0
KTIS 281100Z 22009KT 18/16 A2973 RMK A01 T01820163  RH  093%=      5-min Rain = 0
KTIS 281105Z 23007KT 18/16 A2973 RMK A01 T01810160  RH  092%=      5-min Rain = 0
KTIS 281110Z 23007KT 18/16 A2973 RMK A01 T01770157  RH  092%=      5-min Rain = 0
KTIS 281115Z 24007KT 18/16 A2973 RMK A01 T01750155  RH  092%=      5-min Rain = 0
KTIS 281120Z 24008KT 17/15 A2973 RMK A01 T01740153  RH  092%=      5-min Rain = 0
KTIS 281125Z 24008KT 17/15 A2973 RMK A01 T01720151  RH  091%=      5-min Rain = 0
KTIS 281130Z 24007KT 17/15 A2973 RMK A01 T01710146  RH  089%=      5-min Rain = 0
KTIS 281135Z 25007KT 17/14 A2973 RMK A01 T01680140  RH  087%=      5-min Rain = 0
KTIS 281140Z 25007KT 17/13 A2974 RMK A01 T01660134  RH  085%=      5-min Rain = 0
KTIS 281145Z 25007KT 16/13 A2974 RMK A01 T01640133  RH  085%=      5-min Rain = 0
KTIS 281150Z 26008KT 16/13 A2974 RMK A01 T01620131  RH  086%=      5-min Rain = 0
KTIS 281155Z 26008KT 16/13 A2974 RMK A01 T01600126  RH  083%=      5-min Rain = 0
KTIS 281200Z 27007KT 16/11 A2974 RMK A01 T01580113  RH  078%=      5-min Rain = 0
KTIS 281205Z 27008KT 16/09 A2974 RMK A01 T01600093  RH  066%=      5-min Rain = 0
KTIS 281210Z 27008KT 16/08 A2974 RMK A01 T01600084  RH  062%=      5-min Rain = 0
KTIS 281215Z 27008KT 16/08 A2975 RMK A01 T01590080  RH  061%=      5-min Rain = 0
KTIS 281220Z 27008KT 16/08 A2975 RMK A01 T01580075  RH  059%=      5-min Rain = 0
KTIS 281225Z 27008KT 16/07 A2975 RMK A01 T01580072  RH  058%=      5-min Rain = 0
KTIS 281230Z 27008KT 16/07 A2975 RMK A01 T01570069  RH  057%=      5-min Rain = 0
KTIS 281235Z 27008KT 16/07 A2975 RMK A01 T01570066  RH  056%=      5-min Rain = 0
KTIS 281240Z 27009KT 16/06 A2975 RMK A01 T01570061  RH  054%=      5-min Rain = 0
KTIS 281245Z 28008KT 16/06 A2975 RMK A01 T01560062  RH  055%=      5-min Rain = 0
KTIS 281250Z 28007KT 16/06 A2975 RMK A01 T01570063  RH  055%=      5-min Rain = 0
KTIS 281255Z 28009KT 16/06 A2975 RMK A01 T01590060  RH  053%=      5-min Rain = 0
KTIS 281300Z 28009KT 16/06 A2975 RMK A01 T01600060  RH  053%=      5-min Rain = 0
KTIS 281305Z 28009KT 16/06 A2976 RMK A01 T01610063  RH  054%=      5-min Rain = 0
KTIS 281310Z 28009KT 16/07 A2976 RMK A01 T01620065  RH  054%=      5-min Rain = 0
KTIS 281315Z 29009KT 16/06 A2976 RMK A01 T01640063  RH  053%=      5-min Rain = 0
KTIS 281320Z 28009KT 17/06 A2976 RMK A01 T01690060  RH  050%=      5-min Rain = 0
KTIS 281325Z 28010G15KT 17/06 A2976 RMK A01 T01730056  RH  047%=      5-min Rain = 0
KTIS 281330Z 29010KT 17/06 A2976 RMK A01 T01740062  RH  049%=      5-min Rain = 0
KTIS 281335Z 29010KT 18/06 A2976 RMK A01 T01770062  RH  048%=      5-min Rain = 0
KTIS 281340Z 29011KT 18/06 A2976 RMK A01 T01790056  RH  046%=      5-min Rain = 0
KTIS 281345Z 28011KT 18/06 A2977 RMK A01 T01820057  RH  045%=      5-min Rain = 0
KTIS 281350Z 28011G16KT 19/06 A2977 RMK A01 T01860057  RH  044%=      5-min Rain = 0
KTIS 281355Z 28010KT 19/06 A2977 RMK A01 T01900056  RH  042%=      5-min Rain = 0
KTIS 281400Z 28012KT 19/05 A2977 RMK A01 T01940047  RH  039%=      5-min Rain = 0
KTIS 281405Z 28011KT 19/05 A2977 RMK A01 T01930053  RH  041%=      5-min Rain = 0
KTIS 281410Z 28010KT 20/06 A2977 RMK A01 T01980055  RH  040%=      5-min Rain = 0
KTIS 281415Z 28012KT 20/04 A2977 RMK A01 T02010043  RH  036%=      5-min Rain = 0
KTIS 281420Z 28011G16KT 20/05 A2977 RMK A01 T02040047  RH  037%=      5-min Rain = 0
KTIS 281425Z 28011KT 21/05 A2977 RMK A01 T02070048  RH  036%=      5-min Rain = 0
KTIS 281430Z 28012KT 21/04 A2977 RMK A01 T02100036  RH  032%=      5-min Rain = 0
KTIS 281435Z 28011KT 21/03 A2977 RMK A01 T02130032  RH  031%=      5-min Rain = 0
KTIS 281440Z 28012KT 22/03 A2977 RMK A01 T02170029  RH  030%=      5-min Rain = 0
KTIS 281445Z 28012KT 22/02 A2977 RMK A01 T02180022  RH  028%=      5-min Rain = 0
KTIS 281450Z 28014KT 22/02 A2977 RMK A01 T02190023  RH  028%=      5-min Rain = 0
KTIS 281455Z 28015KT 22/01 A2977 RMK A01 T02190011  RH  026%=      5-min Rain = 0
KTIS 281500Z 28014KT 22/01 A2977 RMK A01 T02200011  RH  026%=      5-min Rain = 0
KTIS 281505Z 28014KT 22/01 A2977 RMK A01 T02210012  RH  026%=      5-min Rain = 0
KTIS 281510Z 29014G19KT 22/02 A2977 RMK A01 T02210019  RH  027%=      5-min Rain = 0
KTIS 281515Z 28013G20KT 22/02 A2977 RMK A01 T02230016  RH  026%=      5-min Rain = 0
KTIS 281520Z 28014KT 22/02 A2977 RMK A01 T02230015  RH  026%=      5-min Rain = 0
KTIS 281525Z 28016G21KT 22/01 A2977 RMK A01 T02240011  RH  025%=      5-min Rain = 0
KTIS 281530Z 28016G22KT 23/02 A2977 RMK A01 T02250017  RH  026%=      5-min Rain = 0
KTIS 281535Z 28015KT 23/02 A2977 RMK A01 T02260019  RH  026%=      5-min Rain = 0
KTIS 281540Z 28013G18KT 23/02 A2977 RMK A01 T02290023  RH  026%=      5-min Rain = 0
KTIS 281545Z 29014G21KT 23/02 A2977 RMK A01 T02320023  RH  026%=      5-min Rain = 0
KTIS 281550Z 28013G19KT 23/02 A2977 RMK A01 T02320022  RH  026%=      5-min Rain = 0
KTIS 281555Z 28016G21KT 23/02 A2977 RMK A01 T02320018  RH  025%=      5-min Rain = 0
KTIS 281600Z 29015G23KT 23/02 A2977 RMK A01 T02330021  RH  025%=      5-min Rain = 0
KTIS 281605Z 27018G24KT 23/01 A2977 RMK A01 T02340012  RH  024%=      5-min Rain = 0
KTIS 281610Z 27018G25KT 23/01 A2977 RMK A01 T02320010  RH  023%=      5-min Rain = 0
KTIS 281615Z 27019G26KT 23/01 A2977 RMK A01 T02320010  RH  023%=      5-min Rain = 0
KTIS 281620Z 27015G21KT 23/02 A2977 RMK A01 T02330015  RH  024%=      5-min Rain = 0
KTIS 281625Z 27015G20KT 24/01 A2977 RMK A01 T02350014  RH  024%=      5-min Rain = 0
KTIS 281630Z 28017G25KT 24/02 A2977 RMK A01 T02360016  RH  024%=      5-min Rain = 0
KTIS 281635Z 28018G26KT 24/01 A2977 RMK A01 T02360010  RH  023%=      5-min Rain = 0
KTIS 281640Z 28017KT 24/01 A2977 RMK A01 T02370014  RH  023%=      5-min Rain = 0
KTIS 281645Z 27017G23KT 24/01 A2977 RMK A01 T02400012  RH  023%=      5-min Rain = 0
KTIS 281650Z 26017G24KT 24/01 A2977 RMK A01 T02420009  RH  022%=      5-min Rain = 0
KTIS 281655Z 27017G24KT 24/01 A2977 RMK A01 T02420008  RH  022%=      5-min Rain = 0
KTIS 281700Z 25016G22KT 25/01 A2977 RMK A01 T02450011  RH  022%=      5-min Rain = 0
KTIS 281705Z 26016G22KT 25/01 A2977 RMK A01 T02470013  RH  022%=      5-min Rain = 0
KTIS 281710Z 25019G25KT 25/01 A2977 RMK A01 T02460010  RH  021%=      5-min Rain = 0
KTIS 281715Z 26017G24KT 25/01 A2977 RMK A01 T02460012  RH  022%=      5-min Rain = 0
KTIS 281720Z 25015G20KT 25/01 A2977 RMK A01 T02480014  RH  022%=      5-min Rain = 0
KTIS 281725Z 25016G21KT 25/01 A2977 RMK A01 T02500008  RH  021%=      5-min Rain = 0
KTIS 281730Z 26017G25KT 25/01 A2977 RMK A01 T02520007  RH  020%=      5-min Rain = 0
KTIS 281735Z 25019G27KT 25/M01 A2977 RMK A01 T02521009  RH  018%=      5-min Rain = 0
KTIS 281740Z 25019G31KT 26/M00 A2977 RMK A01 T02561001  RH  019%=      5-min Rain = 0
KTIS 281745Z 24020G29KT 25/M01 A2977 RMK A01 T02511005  RH  019%=      5-min Rain = 0
KTIS 281750Z 24019G26KT 25/M01 A2977 RMK A01 T02531008  RH  018%=      5-min Rain = 0
KTIS 281755Z 25022G30KT 25/M01 A2977 RMK A01 T02491005  RH  019%=      5-min Rain = 0
KTIS 281800Z 25018G28KT 25/01 A2977 RMK A01 T02530007  RH  020%=      5-min Rain = 0
KTIS 281805Z 26019G27KT 25/00 A2977 RMK A01 T02520002  RH  020%=      5-min Rain = 0
KTIS 281810Z 26020G30KT 25/M00 A2977 RMK A01 T02501002  RH  019%=      5-min Rain = 0
KTIS 281815Z 26019G28KT 25/M00 A2977 RMK A01 T02501001  RH  019%=      5-min Rain = 0
KTIS 281820Z 26017G27KT 25/00 A2977 RMK A01 T02510003  RH  020%=      5-min Rain = 0
KTIS 281825Z 25020G28KT 25/M00 A2977 RMK A01 T02531003  RH  019%=      5-min Rain = 0
KTIS 281830Z 26016G25KT 26/01 A2977 RMK A01 T02560009  RH  020%=      5-min Rain = 0
KTIS 281835Z 25020G27KT 26/M00 A2977 RMK A01 T02561001  RH  019%=      5-min Rain = 0
KTIS 281840Z 25019G25KT 26/M01 A2977 RMK A01 T02551008  RH  018%=      5-min Rain = 0
KTIS 281845Z 25019G30KT 26/M00 A2976 RMK A01 T02571002  RH  018%=      5-min Rain = 0
KTIS 281850Z 25018G25KT 26/M01 A2977 RMK A01 T02591007  RH  018%=      5-min Rain = 0
KTIS 281855Z 26018G25KT 26/M00 A2976 RMK A01 T02581001  RH  018%=      5-min Rain = 0
KTIS 281900Z 26021G29KT 26/M01 A2976 RMK A01 T02571008  RH  018%=      5-min Rain = 0
KTIS 281905Z 25018G25KT 26/M00 A2976 RMK A01 T02561003  RH  018%=      5-min Rain = 0
KTIS 281910Z 24018G24KT 25/M01 A2976 RMK A01 T02541009  RH  018%=      5-min Rain = 0
KTIS 281915Z 25017G25KT 26/M00 A2976 RMK A01 T02561002  RH  019%=      5-min Rain = 0
KTIS 281920Z 25019G26KT 26/M01 A2976 RMK A01 T02561009  RH  018%=      5-min Rain = 0
KTIS 281925Z 26015G22KT 25/M00 A2976 RMK A01 T02531001  RH  019%=      5-min Rain = 0
KTIS 281930Z 25014G21KT 26/01 A2976 RMK A01 T02600006  RH  019%=      5-min Rain = 0
KTIS 281935Z 26018G23KT 26/M00 A2976 RMK A01 T02581003  RH  018%=      5-min Rain = 0
KTIS 281940Z 26018G26KT 26/00 A2976 RMK A01 T02590004  RH  019%=      5-min Rain = 0
KTIS 281945Z 25020G26KT 26/M00 A2975 RMK A01 T02601001  RH  018%=      5-min Rain = 0
KTIS 281950Z 25019G26KT 26/M00 A2975 RMK A01 T02591004  RH  018%=      5-min Rain = 0
KTIS 281955Z 25015G22KT 26/00 A2975 RMK A01 T02620001  RH  018%=      5-min Rain = 0
KTIS 282000Z 25018G24KT 26/M00 A2975 RMK A01 T02611004  RH  018%=      5-min Rain = 0
KTIS 282005Z 24014G21KT 26/00 A2975 RMK A01 T02630004  RH  019%=      5-min Rain = 0
KTIS 282010Z 24018G24KT 26/00 A2975 RMK A01 T02630001  RH  018%=      5-min Rain = 0
KTIS 282015Z 23018G30KT 26/M01 A2975 RMK A01 T02631006  RH  017%=      5-min Rain = 0
KTIS 282020Z 25015KT 27/M00 A2975 RMK A01 T02661002  RH  018%=      5-min Rain = 0
KTIS 282025Z 24014G21KT 27/00 A2974 RMK A01 T02680001  RH  018%=      5-min Rain = 0
KTIS 282030Z 23018G24KT 27/M00 A2974 RMK A01 T02691004  RH  017%=      5-min Rain = 0
KTIS 282035Z 24018G25KT 27/M01 A2974 RMK A01 T02671005  RH  017%=      5-min Rain = 0
KTIS 282040Z 24018G24KT 27/M01 A2974 RMK A01 T02671010  RH  016%=      5-min Rain = 0
KTIS 282045Z 24021G28KT 27/M01 A2974 RMK A01 T02671011  RH  016%=      5-min Rain = 0
KTIS 282050Z 25018G27KT 27/M01 A2974 RMK A01 T02671012  RH  016%=      5-min Rain = 0
KTIS 282055Z 24017G25KT 27/M01 A2974 RMK A01 T02711006  RH  016%=      5-min Rain = 0
KTIS 282100Z 24019G26KT 27/M01 A2974 RMK A01 T02691013  RH  016%=      5-min Rain = 0
KTIS 282105Z 25018G25KT 27/M01 A2974 RMK A01 T02701009  RH  016%=      5-min Rain = 0
KTIS 282110Z 25017G26KT 27/M00 A2974 RMK A01 T02701002  RH  017%=      5-min Rain = 0
KTIS 282115Z 26018G23KT 27/M00 A2974 RMK A01 T02721004  RH  017%=      5-min Rain = 0
KTIS 282120Z 25016G24KT 27/M00 A2974 RMK A01 T02721003  RH  017%=      5-min Rain = 0
KTIS 282125Z 24018G25KT 27/M01 A2974 RMK A01 T02701011  RH  016%=      5-min Rain = 0
KTIS 282130Z 24017G30KT 27/M01 A2974 RMK A01 T02731010  RH  016%=      5-min Rain = 0
KTIS 282135Z 24019G26KT 26/M02 A2974 RMK A01 T02631020  RH  016%=      5-min Rain = 0
KTIS 282140Z 24015G24KT 26/M01 A2974 RMK A01 T02621013  RH  016%=      5-min Rain = 0
KTIS 282145Z 23017G25KT 27/M01 A2973 RMK A01 T02661010  RH  017%=      5-min Rain = 0
KTIS 282150Z 24017G24KT 27/M01 A2973 RMK A01 T02661014  RH  016%=      5-min Rain = 0
KTIS 282155Z 24018G24KT 27/M02 A2973 RMK A01 T02661015  RH  016%=      5-min Rain = 0
KTIS 282200Z 25017G23KT 27/M01 A2973 RMK A01 T02651014  RH  016%=      5-min Rain = 0
KTIS 282205Z 24016G22KT 27/M01 A2973 RMK A01 T02731007  RH  016%=      5-min Rain = 0
KTIS 282210Z 24017KT 27/M02 A2973 RMK A01 T02741016  RH  015%=      5-min Rain = 0
KTIS 282215Z 23015G21KT 27/M02 A2973 RMK A01 T02701017  RH  015%=      5-min Rain = 0
KTIS 282220Z 23016KT 27/M02 A2973 RMK A01 T02691019  RH  015%=      5-min Rain = 0
KTIS 282225Z 23013G22KT 27/M01 A2973 RMK A01 T02681010  RH  016%=      5-min Rain = 0
KTIS 282230Z 24016G23KT 27/M02 A2973 RMK A01 T02671017  RH  016%=      5-min Rain = 0
KTIS 282235Z 25016G24KT 26/M02 A2973 RMK A01 T02631023  RH  015%=      5-min Rain = 0
KTIS 282240Z 26014G19KT 26/M02 A2973 RMK A01 T02631022  RH  015%=      5-min Rain = 0
KTIS 282245Z 26016G22KT 27/M02 A2972 RMK A01 T02651023  RH  015%=      5-min Rain = 0
KTIS 282250Z 25015G23KT 26/M02 A2972 RMK A01 T02621020  RH  016%=      5-min Rain = 0
KTIS 282255Z 26013KT 26/M02 A2972 RMK A01 T02611021  RH  016%=      5-min Rain = 0
KTIS 282300Z 26014G20KT 26/M02 A2972 RMK A01 T02601017  RH  016%=      5-min Rain = 0
KTIS 282305Z 26016G24KT 26/M02 A2972 RMK A01 T02621021  RH  016%=      5-min Rain = 0
KTIS 282310Z 26014G20KT 26/M02 A2972 RMK A01 T02631016  RH  016%=      5-min Rain = 0
KTIS 282315Z 26016G22KT 26/M02 A2972 RMK A01 T02621022  RH  015%=      5-min Rain = 0
KTIS 282320Z 26014G19KT 26/M02 A2972 RMK A01 T02621016  RH  016%=      5-min Rain = 0
KTIS 282325Z 25013KT 26/M01 A2972 RMK A01 T02631014  RH  016%=      5-min Rain = 0
KTIS 282330Z 24014G19KT 26/M02 A2972 RMK A01 T02641019  RH  016%=      5-min Rain = 0
KTIS 282335Z 25013G19KT 27/M02 A2972 RMK A01 T02691017  RH  015%=      5-min Rain = 0
KTIS 282340Z 24014G19KT 28/M02 A2972 RMK A01 T02751015  RH  015%=      5-min Rain = 0
KTIS 282345Z 25016KT 27/M02 A2972 RMK A01 T02741020  RH  015%=      5-min Rain = 0
KTIS 282350Z 24015G22KT 27/M02 A2972 RMK A01 T02711020  RH  015%=      5-min Rain = 0
KTIS 282355Z 24014G20KT 27/M02 A2972 RMK A01 T02701021  RH  015%=      5-min Rain = 0
KTIS 290000Z 23012G18KT 27/M02 A2972 RMK A01 T02701015  RH  016%=      5-min Rain = 0
KTIS 290005Z 25013G21KT 27/M01 A2972 RMK A01 T02741013  RH  015%=      5-min Rain = 0
KTIS 290010Z 26013KT 27/M01 A2972 RMK A01 T02741012  RH  016%=      5-min Rain = 0
KTIS 290015Z 26013G19KT 27/M01 A2972 RMK A01 T02731009  RH  016%=      5-min Rain = 0
KTIS 290020Z 26013KT 27/M01 A2972 RMK A01 T02701013  RH  016%=      5-min Rain = 0
KTIS 290025Z 26013KT 27/M01 A2972 RMK A01 T02681010  RH  016%=      5-min Rain = 0
KTIS 290030Z 26012G17KT 26/M01 A2972 RMK A01 T02631010  RH  017%=      5-min Rain = 0
KTIS 290035Z 26011KT 26/M01 A2972 RMK A01 T02631010  RH  017%=      5-min Rain = 0
KTIS 290040Z 27011KT 26/M01 A2972 RMK A01 T02631010  RH  017%=      5-min Rain = 0
KTIS 290045Z 26012KT 26/M01 A2973 RMK A01 T02591011  RH  017%=      5-min Rain = 0
KTIS 290050Z 26011KT 26/M01 A2973 RMK A01 T02561013  RH  017%=      5-min Rain = 0
KTIS 290055Z 26010KT 25/M01 A2973 RMK A01 T02541009  RH  018%=      5-min Rain = 0
KTIS 290100Z 26009KT 26/M00 A2973 RMK A01 T02551003  RH  019%=      5-min Rain = 0
KTIS 290105Z 26009G14KT 25/00 A2973 RMK A01 T025400-0  RH  019%=      5-min Rain = 0
KTIS 290110Z 26010KT 25/M01 A2974 RMK A01 T02511005  RH  019%=      5-min Rain = 0
KTIS 290115Z 26010KT 25/M01 A2974 RMK A01 T02471008  RH  019%=      5-min Rain = 0
KTIS 290120Z 26010KT 25/M01 A2974 RMK A01 T02451007  RH  019%=      5-min Rain = 0
KTIS 290125Z 26009KT 24/M00 A2974 RMK A01 T02411003  RH  020%=      5-min Rain = 0
KTIS 290130Z 26008KT 24/00 A2974 RMK A01 T02370002  RH  021%=      5-min Rain = 0
KTIS 290135Z 26010KT 23/00 A2974 RMK A01 T02330001  RH  022%=      5-min Rain = 0
KTIS 290140Z 26009KT 23/01 A2975 RMK A01 T02310005  RH  023%=      5-min Rain = 0
KTIS 290145Z 26009KT 23/01 A2975 RMK A01 T02270010  RH  024%=      5-min Rain = 0
KTIS 290150Z 26009KT 22/01 A2975 RMK A01 T02210013  RH  026%=      5-min Rain = 0
KTIS 290155Z 26008KT 22/01 A2975 RMK A01 T02170014  RH  026%=      5-min Rain = 0
KTIS 290200Z 26007KT 21/02 A2975 RMK A01 T02140017  RH  028%=      5-min Rain = 0
KTIS 290205Z 26006KT 21/02 A2975 RMK A01 T02090021  RH  029%=      5-min Rain = 0
KTIS 290210Z 26006KT 21/02 A2975 RMK A01 T02080018  RH  029%=      5-min Rain = 0
KTIS 290215Z 27005KT 20/02 A2976 RMK A01 T02040020  RH  030%=      5-min Rain = 0
KTIS 290220Z 27006KT 20/03 A2976 RMK A01 T01970026  RH  033%=      5-min Rain = 0
KTIS 290225Z 28008KT 19/03 A2976 RMK A01 T01910027  RH  034%=      5-min Rain = 0
KTIS 290230Z 28010KT 20/02 A2976 RMK A01 T01960016  RH  031%=      5-min Rain = 0
KTIS 290235Z 28011KT 20/01 A2976 RMK A01 T01980013  RH  030%=      5-min Rain = 0
KTIS 290240Z 28010KT 20/01 A2977 RMK A01 T02020009  RH  028%=      5-min Rain = 0
KTIS 290245Z 28009KT 20/02 A2977 RMK A01 T01950015  RH  031%=      5-min Rain = 0
KTIS 290250Z 28009KT 19/02 A2977 RMK A01 T01900019  RH  033%=      5-min Rain = 0
KTIS 290255Z 28010KT 19/02 A2977 RMK A01 T01860021  RH  034%=      5-min Rain = 0
KTIS 290300Z 28009KT 19/02 A2977 RMK A01 T01850021  RH  034%=      5-min Rain = 0
KTIS 290305Z 28009KT 18/02 A2977 RMK A01 T01820024  RH  035%=      5-min Rain = 0
KTIS 290310Z 29010KT 18/03 A2978 RMK A01 T01760025  RH  037%=      5-min Rain = 0
KTIS 290315Z 29009KT 17/03 A2978 RMK A01 T01690028  RH  040%=      5-min Rain = 0
KTIS 290320Z 29009KT 16/03 A2978 RMK A01 T01620029  RH  041%=      5-min Rain = 0
KTIS 290325Z 28009KT 16/03 A2978 RMK A01 T01610027  RH  041%=      5-min Rain = 0
KTIS 290330Z 28009KT 16/03 A2978 RMK A01 T01600025  RH  041%=      5-min Rain = 0
KTIS 290335Z 28009KT 16/02 A2978 RMK A01 T01620022  RH  040%=      5-min Rain = 0
KTIS 290340Z 28008KT 16/02 A2978 RMK A01 T01640020  RH  038%=      5-min Rain = 0
KTIS 290345Z 28008KT 17/02 A2978 RMK A01 T01650022  RH  039%=      5-min Rain = 0
KTIS 290350Z 28008KT 17/02 A2979 RMK A01 T01660018  RH  038%=      5-min Rain = 0
KTIS 290355Z 28008KT 17/01 A2979 RMK A01 T01700011  RH  035%=      5-min Rain = 0
KTIS 290400Z 28007KT 17/02 A2979 RMK A01 T01700017  RH  036%=      5-min Rain = 0
KTIS 290405Z 28007KT 16/03 A2979 RMK A01 T01600026  RH  041%=      5-min Rain = 0
KTIS 290410Z 29006KT 15/03 A2979 RMK A01 T01520029  RH  044%=      5-min Rain = 0
KTIS 290415Z 29007KT 15/03 A2979 RMK A01 T01490031  RH  046%=      5-min Rain = 0
KTIS 290420Z 29006KT 15/03 A2979 RMK A01 T01520025  RH  043%=      5-min Rain = 0
KTIS 290425Z 29005KT 15/03 A2979 RMK A01 T01520026  RH  044%=      5-min Rain = 0
KTIS 290430Z 29005KT 15/03 A2979 RMK A01 T01470034  RH  047%=      5-min Rain = 0
KTIS 290435Z 29005KT 14/04 A298 RMK A01 T01440039  RH  050%=      5-min Rain = 0
KTIS 290440Z 29004KT 14/04 A298 RMK A01 T01420039  RH  051%=      5-min Rain = 0
KTIS 290445Z 29002KT 14/05 A298 RMK A01 T01370054  RH  059%=      5-min Rain = 0
KTIS 290450Z 25001KT 13/05 A298 RMK A01 T01310053  RH  060%=      5-min Rain = 0
KTIS 290455Z 24001KT 14/04 A298 RMK A01 T01350044  RH  055%=      5-min Rain = 0

Page generated in 0.0164 seconds.